地図

経路データ

SID SEASON NUMBER BASIN SUBBASIN NAME ISO_TIME NATURE LAT LON WMO_WIND WMO_PRES WMO_AGENCY TRACK_TYPE DIST2LAND LANDFALL IFLAG USA_AGENCY USA_ATCF_ID USA_LAT USA_LON USA_RECORD USA_STATUS USA_WIND USA_PRES USA_SSHS USA_R34_NE USA_R34_SE USA_R34_SW USA_R34_NW USA_R50_NE USA_R50_SE USA_R50_SW USA_R50_NW USA_R64_NE USA_R64_SE USA_R64_SW USA_R64_NW USA_POCI USA_ROCI USA_RMW USA_EYE TOKYO_LAT TOKYO_LON TOKYO_GRADE TOKYO_WIND TOKYO_PRES TOKYO_R50_DIR TOKYO_R50_LONG TOKYO_R50_SHORT TOKYO_R30_DIR TOKYO_R30_LONG TOKYO_R30_SHORT TOKYO_LAND CMA_LAT CMA_LON CMA_CAT CMA_WIND CMA_PRES HKO_LAT HKO_LON HKO_CAT HKO_WIND HKO_PRES NEWDELHI_LAT NEWDELHI_LON NEWDELHI_GRADE NEWDELHI_WIND NEWDELHI_PRES NEWDELHI_CI NEWDELHI_DP NEWDELHI_POCI REUNION_LAT REUNION_LON REUNION_TYPE REUNION_WIND REUNION_PRES REUNION_TNUM REUNION_CI REUNION_RMW REUNION_R34_NE REUNION_R34_SE REUNION_R34_SW REUNION_R34_NW REUNION_R50_NE REUNION_R50_SE REUNION_R50_SW REUNION_R50_NW REUNION_R64_NE REUNION_R64_SE REUNION_R64_SW REUNION_R64_NW BOM_LAT BOM_LON BOM_TYPE BOM_WIND BOM_PRES BOM_TNUM BOM_CI BOM_RMW BOM_R34_NE BOM_R34_SE BOM_R34_SW BOM_R34_NW BOM_R50_NE BOM_R50_SE BOM_R50_SW BOM_R50_NW BOM_R64_NE BOM_R64_SE BOM_R64_SW BOM_R64_NW BOM_ROCI BOM_POCI BOM_EYE BOM_POS_METHOD BOM_PRES_METHOD NADI_LAT NADI_LON NADI_CAT NADI_WIND NADI_PRES WELLINGTON_LAT WELLINGTON_LON WELLINGTON_WIND WELLINGTON_PRES DS824_LAT DS824_LON DS824_STAGE DS824_WIND DS824_PRES TD9636_LAT TD9636_LON TD9636_STAGE TD9636_WIND TD9636_PRES TD9635_LAT TD9635_LON TD9635_WIND TD9635_PRES TD9635_ROCI NEUMANN_LAT NEUMANN_LON NEUMANN_CLASS NEUMANN_WIND NEUMANN_PRES MLC_LAT MLC_LON MLC_CLASS MLC_WIND MLC_PRES USA_GUST BOM_GUST BOM_GUST_PER REUNION_GUST REUNION_GUST_PER USA_SEAHGT USA_SEARAD_NE USA_SEARAD_SE USA_SEARAD_SW USA_SEARAD_NW STORM_SPEED STORM_DIR
1997042S13096 1997 12 SI WA KARLETTE 1997-02-11 00:00:00 TS -13.2000 95.6000 main 1262 1262 O___________O_ jtwc_sh SH251997 -13.2000 95.6000 15 -1 -13.2000 95.6000 TC 15 10 263
1997042S13096 1997 12 SI WA KARLETTE 1997-02-11 03:00:00 TS -13.2602 95.0901 main 1306 1306 P___________P_ SH251997 -13.2602 95.0901 15 -1 -13.2602 95.0901 TC 15 10 264
1997042S13096 1997 12 SI WA KARLETTE 1997-02-11 06:00:00 TS -13.3000 94.6000 main 1342 1342 O___________O_ jtwc_sh SH251997 -13.3000 94.6000 15 -1 -13.3000 94.6000 TC 15 9 267
1997042S13096 1997 12 SI WA KARLETTE 1997-02-11 09:00:00 TS -13.3074 94.1425 main 1377 1377 P___________P_ SH251997 -13.3074 94.1425 15 -1 -13.3074 94.1425 TC 15 9 270
1997042S13096 1997 12 SI WA KARLETTE 1997-02-11 12:00:00 TS -13.3000 93.7000 main 1406 1406 O___________O_ jtwc_sh SH251997 -13.3000 93.7000 15 -1 -13.3000 93.7000 TC 15 9 270
1997042S13096 1997 12 SI WA KARLETTE 1997-02-11 15:00:00 TS -13.2999 93.2500 main 1436 1436 P___________P_ SH251997 -13.2999 93.2500 15 -1 -13.2999 93.2500 TC 15 9 270
1997042S13096 1997 12 SI WA KARLETTE 1997-02-11 18:00:00 TS -13.3000 92.8000 main 1462 1462 O___________O_ jtwc_sh SH251997 -13.3000 92.8000 15 -1 -13.3000 92.8000 TC 15 9 270
1997042S13096 1997 12 SI WA KARLETTE 1997-02-11 21:00:00 TS -13.3075 92.3425 main 1489 1489 P___________P_ SH251997 -13.3075 92.3425 15 -1 -13.3075 92.3425 TC 15 9 270
1997042S13096 1997 12 SI WA KARLETTE 1997-02-12 00:00:00 TS -13.3000 91.9000 main 1511 1511 O___________O_ jtwc_sh SH251997 -13.3000 91.9000 15 -1 -13.3000 91.9000 TC 15 8 273
1997042S13096 1997 12 SI WA KARLETTE 1997-02-12 03:00:00 TS -13.2574 91.4850 main 1533 1530 P___________P_ SH251997 -13.2574 91.4850 15 -1 -13.2574 91.4850 TC 15 8 277
1997042S13096 1997 12 SI WA KARLETTE 1997-02-12 06:00:00 TS -13.2000 91.1000 main 1548 1548 O___________O_ jtwc_sh SH251997 -13.2000 91.1000 15 -1 -13.2000 91.1000 TC 15 7 278
1997042S13096 1997 12 SI WA KARLETTE 1997-02-12 09:00:00 TS -13.1500 90.7275 main 1564 1564 P___________P_ SH251997 -13.1500 90.7275 15 -1 -13.1500 90.7275 TC 15 7 278
1997042S13096 1997 12 SI WA KARLETTE 1997-02-12 12:00:00 TS -13.1000 90.4000 main 1583 1583 O___________O_ jtwc_sh SH251997 -13.1000 90.4000 15 -1 -13.1000 90.4000 TC 15 6 280
1997042S13096 1997 12 SI WA KARLETTE 1997-02-12 15:00:00 TS -13.0500 90.1200 main 1594 1594 P___________P_ SH251997 -13.0500 90.1200 15 -1 -13.0500 90.1200 TC 15 5 282
1997042S13096 1997 12 SI MM KARLETTE 1997-02-12 18:00:00 TS -13.0000 89.9000 main 1608 1606 O___________O_ jtwc_sh SH251997 -13.0000 89.9000 15 -1 -13.0000 89.9000 TC 15 4 286
1997042S13096 1997 12 SI MM KARLETTE 1997-02-12 21:00:00 TS -12.9425 89.7350 main 1613 1613 P___________P_ SH251997 -12.9425 89.7350 15 -1 -12.9425 89.7350 TC 15 3 289
1997042S13096 1997 12 SI MM KARLETTE 1997-02-13 00:00:00 TS -12.9000 89.6000 main 1620 1620 O___________O_ jtwc_sh SH251997 -12.9000 89.6000 15 -1 -12.9000 89.6000 TC 15 3 280
1997042S13096 1997 12 SI MM KARLETTE 1997-02-13 03:00:00 TS -12.8925 89.4575 main 1627 1627 P___________P_ SH251997 -12.8925 89.4575 15 -1 -12.8925 89.4575 TC 15 3 270
1997042S13096 1997 12 SI MM KARLETTE 1997-02-13 06:00:00 TS -12.9000 89.3000 main 1641 1641 O___________O_ jtwc_sh SH251997 -12.9000 89.3000 15 -1 -12.9000 89.3000 TC 15 3 270
1997042S13096 1997 12 SI MM KARLETTE 1997-02-13 09:00:00 TS -12.8925 89.1150 main 1655 1655 P___________P_ SH251997 -12.8925 89.1150 15 -1 -12.8925 89.1150 TC 15 4 270
1997042S13096 1997 12 SI MM KARLETTE 1997-02-13 12:00:00 TS -12.9000 88.9000 main 1670 1670 O___________O_ jtwc_sh SH251997 -12.9000 88.9000 15 -1 -12.9000 88.9000 TC 15 4 264
1997042S13096 1997 12 SI MM KARLETTE 1997-02-13 15:00:00 TS -12.9425 88.6650 main 1684 1684 P___________P_ SH251997 -12.9425 88.6650 15 -1 -12.9425 88.6650 TC 15 5 258
1997042S13096 1997 12 SI MM KARLETTE 1997-02-13 18:00:00 TS -13.0000 88.4000 main 1715 1715 O___________O_ jtwc_sh SH251997 -13.0000 88.4000 15 -1 -13.0000 88.4000 TC 15 6 260
1997042S13096 1997 12 SI MM KARLETTE 1997-02-13 21:00:00 TS -13.0425 88.1075 main 1737 1737 P___________P_ SH251997 -13.0425 88.1075 15 -1 -13.0425 88.1075 TC 15 6 260
1997042S13096 1997 12 SI MM KARLETTE 1997-02-14 00:00:00 TS -13.1000 87.8000 main 1768 1768 O___________O_ jtwc_sh SH251997 -13.1000 87.8000 15 -1 -13.1000 87.8000 TC 15 6 256
1997042S13096 1997 12 SI MM KARLETTE 1997-02-14 03:00:00 TS -13.1925 87.5000 main 1799 1799 P___________P_ SH251997 -13.1925 87.5000 17 -1 -13.1925 87.5000 TC 17 7 252
1997042S13096 1997 12 SI MM KARLETTE 1997-02-14 06:00:00 TS -13.3111 87.1222 25 1004 reunion main 1837 1837 O____O______O_ jtwc_sh SH251997 -13.3000 87.2000 20 -1 -13.4000 86.5000 2 25 1004 2.00000 2.00000 -13.3000 87.2000 TC 20 8 250
1997042S13096 1997 12 SI MM KARLETTE 1997-02-14 09:00:00 TS -13.4560 86.7470 main 1884 1884 P____P______P_ SH251997 -13.4000 86.9000 22 -1 -13.6802 86.1353 2 25 1003 -13.4000 86.9000 TC 22 8 248
1997042S13096 1997 12 SI MM KARLETTE 1997-02-14 12:00:00 TS -13.6091 86.3818 25 1002 reunion main 1915 1915 O____O______O_ jtwc_sh SH251997 -13.5000 86.6000 25 -1 -13.9000 85.8000 2 25 1002 2.00000 2.00000 -13.5000 86.6000 TC 25 7 248
1997042S13096 1997 12 SI MM KARLETTE 1997-02-14 15:00:00 TS -13.7308 86.0357 main 1955 1955 P____P______P_ SH251997 -13.5850 86.2999 25 -1 -14.0224 85.5073 2 25 1002 -13.5850 86.2999 TC 25 7 250
1997042S13096 1997 12 SI MM KARLETTE 1997-02-14 18:00:00 TS -13.8333 85.7333 25 1002 reunion main 1986 1986 O____O______O_ jtwc_sh SH251997 -13.7000 86.0000 25 -1 -14.1000 85.2000 2 25 1002 2.00000 2.00000 -13.7000 86.0000 TC 25 7 247
1997042S13096 1997 12 SI MM KARLETTE 1997-02-14 21:00:00 TS -13.9824 85.4199 main 2025 2025 P____P______P_ SH251997 -13.8774 85.7224 25 -1 -14.1925 84.8149 2 25 1002 -13.8774 85.7224 TC 25 7 243
1997042S13096 1997 12 SI MM KARLETTE 1997-02-15 00:00:00 TS -14.1667 85.0667 25 1002 reunion main 2065 2065 O____O______O_ jtwc_sh SH251997 -14.1000 85.4000 25 -1 -14.3000 84.4000 2 25 1002 2.00000 2.00000 -14.1000 85.4000 TC 25 9 243
1997042S13096 1997 12 SI MM KARLETTE 1997-02-15 03:00:00 TS -14.3759 84.6384 main 2120 2120 P____P______P_ SH251997 -14.3426 84.9650 25 -1 -14.4425 83.9850 2 25 1002 -14.3426 84.9650 TC 25 9 243
1997042S13096 1997 12 SI MM KARLETTE 1997-02-15 06:00:00 TS -14.6000 84.2000 25 1002 reunion main 2167 2167 O____O______O_ jtwc_sh SH251997 -14.6000 84.5000 25 -1 -14.6000 83.6000 2 25 1002 2.00000 2.00000 -14.6000 84.5000 TC 25 9 240
1997042S13096 1997 12 SI MM KARLETTE 1997-02-15 09:00:00 TS -14.8316 83.8108 main 2214 2214 P____P______P_ SH251997 -14.8649 84.0850 25 -1 -14.7650 83.2625 2 25 1001 -14.8649 84.0850 TC 25 8 239
1997042S13096 1997 12 SI MM KARLETTE 1997-02-15 12:00:00 TS -15.0333 83.4667 25 1000 reunion main 2254 2254 O____O______O_ jtwc_sh SH251997 -15.1000 83.7000 25 -1 -14.9000 83.0000 2 25 1000 2.00000 2.00000 -15.1000 83.7000 TC 25 7 240
1997042S13096 1997 12 SI MM KARLETTE 1997-02-15 15:00:00 TS -15.1824 83.1733 main 2293 2293 P____P______P_ SH251997 -15.2874 83.3425 25 -1 -14.9724 82.8349 2 27 997 -15.2874 83.3425 TC 25 6 247
1997042S13096 1997 12 SI MM KARLETTE 1997-02-15 18:00:00 TS -15.2667 82.9000 30 995 reunion main 2325 2325 O____O______O_ jtwc_sh SH251997 -15.4000 83.0000 25 -1 -15.0000 82.7000 2 30 995 2.50000 2.50000 -15.4000 83.0000 TC 25 6 259
1997042S13096 1997 12 SI MM KARLETTE 1997-02-15 21:00:00 TS -15.2916 82.6049 main 2350 2350 P____P______P_ SH251997 -15.4224 82.6499 25 -1 -15.0300 82.5151 2 32 993 -15.4224 82.6499 TC 25 6 270
1997042S13096 1997 12 SI MM KARLETTE 1997-02-16 00:00:00 TS -15.2667 82.3000 35 992 reunion main 2375 2368 O____O______O_ jtwc_sh SH251997 -15.4000 82.3000 25 -1 -15.0000 82.3000 3 35 992 3.00000 3.00000 -15.4000 82.3000 TC 25 6 277
1997042S13096 1997 12 SI MM KARLETTE 1997-02-16 03:00:00 TS -15.2191 81.9933 main 2368 2366 P____P______P_ SH251997 -15.3999 81.9575 27 -1 -14.8575 82.0649 3 35 992 -15.3999 81.9575 TC 27 6 279
1997042S13096 1997 12 SI MM KARLETTE 1997-02-16 06:00:00 TS -15.1667 81.6667 35 992 reunion main 2366 2365 O____O______O_ jtwc_sh SH251997 -15.4000 81.6000 30 -1 -14.7000 81.8000 3 35 992 3.00000 3.00000 -15.4000 81.6000 TC 30 7 276
1997042S13096 1997 12 SI MM KARLETTE 1997-02-16 09:00:00 TS -15.1524 81.3151 main 2365 2353 P____P______P_ SH251997 -15.4224 81.2151 32 -1 -14.6125 81.5150 3 35 992 -15.4224 81.2151 TC 32 7 273
1997042S13096 1997 12 SI MM KARLETTE 1997-02-16 12:00:00 TS -15.1333 80.9333 35 992 reunion main 2352 2352 O____O______O_ jtwc_sh SH251997 -15.4000 80.8000 35 0 -14.6000 81.2000 3 35 992 2.50000 3.00000 -15.4000 80.8000 TC 35 8 277
1997042S13096 1997 12 SI MM KARLETTE 1997-02-16 15:00:00 TS -15.0641 80.5216 main 2352 2341 P____P______P_ SH251997 -15.2575 80.3498 37 0 -14.6774 80.8651 3 35 992 -15.2575 80.3498 TC 37 8 279
1997042S13096 1997 12 SI MM KARLETTE 1997-02-16 18:00:00 TS -15.0000 80.1000 35 992 reunion main 2342 2342 O____O______O_ jtwc_sh SH251997 -15.1000 79.9000 40 0 -14.8000 80.5000 3 35 992 2.50000 3.00000 -15.1000 79.9000 TC 40 8 276
1997042S13096 1997 12 SI MM KARLETTE 1997-02-16 21:00:00 TS -14.9774 79.7025 main 2343 2343 P____P______P_ SH251997 -15.0199 79.4850 42 0 -14.8923 80.1374 3 32 993 -15.0199 79.4850 TC 42 8 270
1997042S13096 1997 12 SI MM KARLETTE 1997-02-17 00:00:00 TS -15.0000 79.3000 30 995 reunion main 2345 2307 O____O______O_ jtwc_sh SH251997 -15.0000 79.1000 45 0 -15.0000 79.7000 2 30 995 2.50000 2.50000 -15.0000 79.1000 TC 45 8 263
1997042S13096 1997 12 SI MM KARLETTE 1997-02-17 03:00:00 TS -15.0734 78.8568 main 2307 2263 P____P______P_ SH251997 -15.0350 78.7276 45 0 -15.1502 79.1151 2 29 996 -15.0350 78.7276 TC 45 9 259
1997042S13096 1997 12 SI MM KARLETTE 1997-02-17 06:00:00 TS -15.1667 78.4333 28 997 reunion main 2253 2222 O____O______O_ jtwc_sh SH251997 -15.1000 78.4000 45 0 -15.3000 78.5000 2 28 997 2.50000 2.50000 -15.1000 78.4000 TC 45 8 258
1997042S13096 1997 12 SI MM KARLETTE 1997-02-17 09:00:00 TS -15.2282 78.0899 main 2222 2188 P____P______P_ SH251997 -15.1349 78.1499 45 0 -15.4149 77.9699 2 28 997 -15.1349 78.1499 TC 45 7 258
1997042S13096 1997 12 SI MM KARLETTE 1997-02-17 12:00:00 TS -15.3000 77.7667 28 997 reunion main 2188 2144 O____O______O_ jtwc_sh SH251997 -15.2000 77.9000 45 0 -15.5000 77.5000 2 28 997 2.50000 2.50000 -15.2000 77.9000 TC 45 7 255
1997042S13096 1997 12 SI MM KARLETTE 1997-02-17 15:00:00 TS -15.4091 77.4100 main 2144 2110 P____P______P_ SH251997 -15.3350 77.5725 45 0 -15.5573 77.0849 2 31 994 -15.3350 77.5725 TC 45 7 252
1997042S13096 1997 12 SI MM KARLETTE 1997-02-17 18:00:00 TS -15.5333 77.0333 35 992 reunion main 2100 2066 O____O______O_ jtwc_sh SH251997 -15.5000 77.2000 45 0 -15.6000 76.7000 3 35 992 3.00000 3.00000 -15.5000 77.2000 TC 45 8 252
1997042S13096 1997 12 SI MM KARLETTE 1997-02-17 21:00:00 TS -15.6449 76.6532 main 2066 2018 P____P______P_ SH251997 -15.6424 76.8224 45 0 -15.6498 76.3150 3 37 990 -15.6424 76.8224 TC 45 8 253
1997042S13096 1997 12 SI MM KARLETTE 1997-02-18 00:00:00 TS -15.7667 76.2333 40 988 reunion main 2008 1964 O____O______O_ jtwc_sh SH251997 -15.8000 76.4000 45 0 -15.7000 75.9000 3 40 988 3.00000 3.00000 -15.8000 76.4000 TC 45 9 252
1997042S13096 1997 12 SI MM KARLETTE 1997-02-18 03:00:00 TS -15.9241 75.7584 main 1964 1906 P____P______P_ SH251997 -16.0074 75.9301 45 0 -15.7575 75.4150 3 42 986 -16.0074 75.9301 TC 45 10 253
1997042S13096 1997 12 SI MM KARLETTE 1997-02-18 06:00:00 TS -16.0667 75.2333 45 984 reunion main 1896 1845 O____O______O_ jtwc_sh SH251997 -16.2000 75.4000 45 0 -15.8000 74.9000 3 45 984 3.50000 3.50000 -16.2000 75.4000 TC 45 11 259
1997042S13096 1997 12 SI MM KARLETTE 1997-02-18 09:00:00 TS -16.1333 74.6715 main 1845 1780 P____P______P_ SH251997 -16.3150 74.8074 45 0 -15.7699 74.3997 3 45 984 -16.3150 74.8074 TC 45 11 263
1997042S13096 1997 12 SI MM KARLETTE 1997-02-18 12:00:00 TS -16.2000 74.1000 45 984 reunion main 1780 1726 O____O______O_ jtwc_sh SH251997 -16.4000 74.2000 45 0 -15.8000 73.9000 3 45 984 3.50000 3.50000 -16.4000 74.2000 TC 45 11 260
1997042S13096 1997 12 SI MM KARLETTE 1997-02-18 15:00:00 TS -16.3325 73.5342 main 1716 1668 P____P______P_ SH251997 -16.4925 73.6124 45 0 -16.0125 73.3777 3 45 984 -16.4925 73.6124 TC 45 11 254
1997042S13096 1997 12 SI MM KARLETTE 1997-02-18 18:00:00 TS -16.5000 73.0333 45 984 reunion main 1658 1621 O____O______O_ jtwc_sh SH251997 -16.6000 73.1000 45 0 -16.3000 72.9000 3 45 984 3.00000 3.50000 -16.6000 73.1000 TC 45 9 248
1997042S13096 1997 12 SI MM KARLETTE 1997-02-18 21:00:00 TS -16.6757 72.6433 main 1611 1574 P____P______P_ SH251997 -16.7423 72.7125 45 0 -16.5424 72.5049 3 45 984 -16.7423 72.7125 TC 45 8 241
1997042S13096 1997 12 SI MM KARLETTE 1997-02-19 00:00:00 TS -16.8667 72.3333 45 984 reunion main 1574 1547 O____O______O_ jtwc_sh SH251997 -16.9000 72.4000 45 0 -16.8000 72.2000 3 45 984 3.00000 3.50000 -16.9000 72.4000 TC 45 7 236
1997042S13096 1997 12 SI MM KARLETTE 1997-02-19 03:00:00 TS -17.0641 72.0416 main 1537 1510 P____P______P_ SH251997 -17.0500 72.0850 45 0 -17.0924 71.9550 3 42 986 -17.0500 72.0850 TC 45 7 232
1997042S13096 1997 12 SI MM KARLETTE 1997-02-19 06:00:00 TS -17.2667 71.8000 40 988 reunion main 1510 1484 O____O______O_ jtwc_sh SH251997 -17.2000 71.8000 45 0 -17.4000 71.8000 3 40 988 3.00000 3.00000 -17.2000 71.8000 TC 45 6 224
1997042S13096 1997 12 SI MM KARLETTE 1997-02-19 09:00:00 TS -17.4816 71.6216 main 1484 1458 P____P______P_ SH251997 -17.3499 71.5499 45 0 -17.7449 71.7649 3 37 990 -17.3499 71.5499 TC 45 5 221
1997042S13096 1997 12 SI MM KARLETTE 1997-02-19 12:00:00 TS -17.6667 71.4333 35 992 reunion main 1458 1435 O____O______O_ jtwc_sh SH251997 -17.5000 71.3000 45 0 -18.0000 71.7000 3 35 992 2.50000 3.00000 -17.5000 71.3000 TC 45 5 235
1997042S13096 1997 12 SI MM KARLETTE 1997-02-19 15:00:00 TS -17.7892 71.1558 main 1435 1401 P____P______P_ SH251997 -17.6574 71.0150 45 0 -18.0526 71.4374 3 35 992 -17.6574 71.0150 TC 45 6 251
1997042S13096 1997 12 SI MM KARLETTE 1997-02-19 18:00:00 TS -17.8667 70.8333 35 992 reunion main 1391 1360 O____O______O_ jtwc_sh SH251997 -17.8000 70.7000 45 0 -18.0000 71.1000 3 35 992 2.50000 3.00000 -17.8000 70.7000 TC 45 6 257
1997042S13096 1997 12 SI MM KARLETTE 1997-02-19 21:00:00 TS -17.9316 70.5100 main 1360 1327 P____P______P_ SH251997 -17.9225 70.3575 45 0 -17.9499 70.8149 3 32 993 -17.9225 70.3575 TC 45 6 261
1997042S13096 1997 12 SI MM KARLETTE 1997-02-20 00:00:00 TS -17.9667 70.1667 30 995 reunion main 1327 1286 O____O______O_ jtwc_sh SH251997 -18.0000 70.0000 45 0 -17.9000 70.5000 2 30 995 2.50000 2.50000 -18.0000 70.0000 TC 45 7 266
1997042S13096 1997 12 SI MM KARLETTE 1997-02-20 03:00:00 TS -17.9741 69.8025 main 1286 1255 P____P______P_ SH251997 -18.0150 69.6424 45 0 -17.8925 70.1225 2 32 993 -18.0150 69.6424 TC 45 7 270
1997042S13096 1997 12 SI MM KARLETTE 1997-02-20 06:00:00 TS -17.9667 69.4333 35 992 reunion main 1245 1217 O____O______O_ jtwc_sh SH251997 -18.0000 69.3000 45 0 -17.9000 69.7000 3 35 992 3.00000 3.00000 -18.0000 69.3000 TC 45 7 273
1997042S13096 1997 12 SI MM KARLETTE 1997-02-20 09:00:00 TS -17.9440 69.0907 main 1217 1183 P____P______P_ SH251997 -17.9849 68.9999 47 0 -17.8623 69.2722 3 37 990 -17.9849 68.9999 TC 47 7 270
1997042S13096 1997 12 SI MM KARLETTE 1997-02-20 12:00:00 TS -17.9667 68.7333 40 988 reunion main 1173 1129 O____O______O_ jtwc_sh SH251997 -18.0000 68.7000 50 0 -17.9000 68.8000 3 40 988 3.00000 3.00000 -18.0000 68.7000 TC 50 7 260
1997042S13096 1997 12 SI MM KARLETTE 1997-02-20 15:00:00 TS -18.0767 68.3217 main 1129 1083 P____P______P_ SH251997 -18.0700 68.3575 52 0 -18.0901 68.2501 3 40 988 -18.0700 68.3575 TC 52 8 249
1997042S13096 1997 12 SI MM KARLETTE 1997-02-20 18:00:00 TS -18.2667 67.9000 40 988 reunion main 1083 1047 O____O______O_ jtwc_sh SH251997 -18.2000 68.0000 55 0 -18.4000 67.7000 3 40 988 3.00000 3.00000 -18.2000 68.0000 TC 55 9 239
1997042S13096 1997 12 SI MM KARLETTE 1997-02-20 21:00:00 TS -18.5181 67.5341 main 1036 998 P____P______P_ SH251997 -18.3698 67.6723 55 0 -18.8146 67.2576 3 40 988 -18.3698 67.6723 TC 55 9 234
1997042S13096 1997 12 SI MM KARLETTE 1997-02-21 00:00:00 TS -18.8000 67.1333 40 988 reunion main 988 943 O____O______O_ jtwc_sh SH251997 -18.6000 67.3000 55 0 -19.2000 66.8000 3 40 988 3.00000 3.00000 -18.6000 67.3000 TC 55 10 238
1997042S13096 1997 12 SI MM KARLETTE 1997-02-21 03:00:00 TS -19.0474 66.6397 main 932 875 P____P______P_ SH251997 -18.8848 66.8524 55 0 -19.3726 66.2145 3 42 986 -18.8848 66.8524 TC 55 11 244
1997042S13096 1997 12 SI MM KARLETTE 1997-02-21 06:00:00 TS -19.3000 66.0667 45 984 reunion main 875 808 O____O______O_ jtwc_sh SH251997 -19.2000 66.3000 55 0 -19.5000 65.6000 3 45 984 3.50000 3.50000 -19.2000 66.3000 TC 55 13 245
1997042S13096 1997 12 SI MM KARLETTE 1997-02-21 09:00:00 TS -19.5908 65.4293 main 798 732 P____P______P_ SH251997 -19.5150 65.6301 57 0 -19.7424 65.0276 3 47 982 -19.5150 65.6301 TC 57 14 245
1997042S13096 1997 12 SI MM KARLETTE 1997-02-21 12:00:00 TS -19.8667 64.7667 50 980 reunion main 732 668 O____O______O_ jtwc_sh SH251997 -19.8000 64.9000 60 0 -20.0000 64.5000 3 50 980 4.00000 4.00000 -19.8000 64.9000 TC 60 13 249
1997042S13096 1997 12 SI MM KARLETTE 1997-02-21 15:00:00 TS -20.0665 64.1346 main 657 604 P____P______P_ SH251997 -20.0000 64.1771 62 0 -20.1996 64.0496 3 52 977 -20.0000 64.1771 TC 62 12 251
1997042S13096 1997 12 SI MM KARLETTE 1997-02-21 18:00:00 TS -20.2667 63.5333 55 975 reunion main 594 542 O____O______O_ jtwc_sh SH251997 -20.2000 63.5000 65 1 -20.4000 63.6000 3 55 975 4.00000 4.00000 -20.2000 63.5000 TC 65 12 247
1997042S13096 1997 12 SI MM KARLETTE 1997-02-21 21:00:00 TS -20.5322 62.9781 main 542 492 P____P______P_ SH251997 -20.4846 62.9274 65 1 -20.6273 63.0797 3 57 972 -20.4846 62.9274 TC 65 12 241
1997042S13096 1997 12 SI MM KARLETTE 1997-02-22 00:00:00 TS -20.8333 62.4333 60 970 reunion main 482 435 O____O______O_ jtwc_sh SH251997 -20.8000 62.4000 65 1 -20.9000 62.5000 3 60 970 4.50000 4.50000 -20.8000 62.4000 TC 65 12 239
1997042S13096 1997 12 SI MM KARLETTE 1997-02-22 03:00:00 TS -21.1549 61.8500 main 437 383 P____P______P_ SH251997 -21.1073 61.8499 65 1 -21.2501 61.8503 3 60 970 -21.1073 61.8499 TC 65 13 240
1997042S13096 1997 12 SI MM KARLETTE 1997-02-22 06:00:00 TS -21.4667 61.2667 60 970 reunion main 387 338 O____O______O_ jtwc_sh SH251997 -21.4000 61.3000 65 1 -21.6000 61.2000 3 60 970 4.50000 4.50000 -21.4000 61.3000 TC 65 12 242
1997042S13096 1997 12 SI MM KARLETTE 1997-02-22 09:00:00 TS -21.7240 60.6989 main 338 302 P____P______P_ SH251997 -21.6499 60.7422 65 1 -21.8724 60.6122 3 60 970 -21.6499 60.7422 TC 65 11 244
1997042S13096 1997 12 SI MM KARLETTE 1997-02-22 12:00:00 TS -21.9667 60.1667 60 970 reunion main 308 281 O____O______O_ jtwc_sh SH251997 -21.9000 60.2000 65 1 -22.1000 60.1000 3 60 970 4.50000 4.50000 -21.9000 60.2000 TC 65 11 242
1997042S13096 1997 12 SI MM KARLETTE 1997-02-22 15:00:00 TS -22.2182 59.6797 main 281 269 P____P______P_ SH251997 -22.1849 59.6774 65 1 -22.2847 59.6845 3 60 970 -22.1849 59.6774 TC 65 10 238
1997042S13096 1997 12 SI MM KARLETTE 1997-02-22 18:00:00 TS -22.5000 59.2333 60 970 reunion main 272 270 O____O______O_ jtwc_sh SH251997 -22.5000 59.2000 65 1 -22.5000 59.3000 3 60 970 4.50000 4.50000 -22.5000 59.2000 TC 65 10 234
1997042S13096 1997 12 SI MM KARLETTE 1997-02-22 21:00:00 TS -22.8149 58.7989 main 281 281 P____P______P_ SH251997 -22.8199 58.7697 62 0 -22.8049 58.8573 3 60 970 -22.8199 58.7697 TC 62 10 228
1997042S13096 1997 12 SI MM KARLETTE 1997-02-23 00:00:00 TS -23.2000 58.4000 60 970 reunion main 310 310 O____O______O_ jtwc_sh SH251997 -23.2000 58.4000 60 0 -23.2000 58.4000 3 60 970 4.00000 4.50000 -23.2000 58.4000 TC 60 11 219
1997042S13096 1997 12 SI MM KARLETTE 1997-02-23 03:00:00 TS -23.6799 58.0275 main 350 350 P____P______P_ SH251997 -23.6699 58.0773 57 0 -23.7000 57.9278 3 60 970 -23.6699 58.0773 TC 57 12 213
1997042S13096 1997 12 SI MM KARLETTE 1997-02-23 06:00:00 TS -24.2000 57.7000 60 970 reunion main 378 378 O____O______O_ jtwc_sh SH251997 -24.2000 57.8000 55 0 -24.2000 57.5000 3 60 970 4.00000 4.50000 -24.2000 57.8000 TC 55 12 210
1997042S13096 1997 12 SI MM KARLETTE 1997-02-23 09:00:00 TS -24.6758 57.4056 main 412 412 P____P______P_ SH251997 -24.7350 57.5274 55 0 -24.5574 57.1620 3 57 972 -24.7350 57.5274 TC 55 11 207
1997042S13096 1997 12 SI MM KARLETTE 1997-02-23 12:00:00 TS -25.1667 57.1667 55 975 reunion main 455 451 O____O______O_ jtwc_sh SH251997 -25.3000 57.3000 55 0 -24.9000 56.9000 3 55 975 3.50000 4.00000 -25.3000 57.3000 TC 55 11 200
1997042S13096 1997 12 SI MM KARLETTE 1997-02-23 15:00:00 TS -25.7116 56.9823 main 501 501 P____P______P_ SH251997 -25.8999 57.1347 52 0 -25.3349 56.6774 3 52 977 -25.8999 57.1347 TC 52 11 195
1997042S13096 1997 12 SI MM KARLETTE 1997-02-23 18:00:00 TS -26.2667 56.8333 50 980 reunion main 561 561 O____O______O_ jtwc_sh SH251997 -26.5000 57.0000 50 0 -25.8000 56.5000 3 50 980 3.50000 4.00000 -26.5000 57.0000 TC 50 11 195
1997042S13096 1997 12 SI MM KARLETTE 1997-02-23 21:00:00 TS -26.7758 56.6658 main 613 611 P____P______P_ SH251997 -27.0500 56.8424 50 0 -26.2275 56.3127 3 47 982 -27.0500 56.8424 TC 50 11 195
1997042S13096 1997 12 SI MM KARLETTE 1997-02-24 00:00:00 TS -27.3000 56.5333 45 985 reunion main 665 665 O____O______O_ jtwc_sh SH251997 -27.6000 56.7000 50 0 -26.7000 56.2000 3 45 985 3.50000 3.50000 -27.6000 56.7000 TC 50 11 190
1997042S13096 1997 12 SI MM KARLETTE 1997-02-24 03:00:00 TS -27.8525 56.4607 main 731 731 P____P______P_ SH251997 -28.1550 56.5922 47 0 -27.2475 56.1977 3 45 985 -28.1550 56.5922 TC 47 12 184
1997042S13096 1997 12 SI MM KARLETTE 1997-02-24 06:00:00 TS -28.5000 56.4333 45 985 reunion main 797 797 O____O______O_ jtwc_sh SH251997 -28.8000 56.5000 45 0 -27.9000 56.3000 3 45 985 3.00000 3.50000 -28.8000 56.5000 TC 45 14 183
1997042S13096 1997 12 SI MM KARLETTE 1997-02-24 09:00:00 TS -29.2783 56.3820 main 886 886 P____P______P_ SH251997 -29.5975 56.3489 45 0 -28.6399 56.4483 3 45 985 -29.5975 56.3489 TC 45 17 0
1997042S13096 1997 12 SI MM KARLETTE 1997-02-24 12:00:00 TS -30.1667 56.4333 45 985 reunion main 986 986 O____O______O_ jtwc_sh SH251997 -30.5000 56.3000 45 0 -29.5000 56.7000 3 45 985 3.00000 3.50000 -30.5000 56.3000 TC 45 18 172
1997042S13096 1997 12 SI MM KARLETTE 1997-02-24 15:00:00 TS -31.1009 56.6757 main 1088 1088 P____P______P_ SH251997 -31.4351 56.4892 45 0 -30.4325 57.0486 3 42 987 -31.4351 56.4892 TC 45 20 165
1997042S13096 1997 12 SI MM KARLETTE 1997-02-24 18:00:00 TS -32.1000 57.0333 40 990 reunion main 1203 1203 O____O______O_ jtwc_sh SH251997 -32.4000 56.8000 45 0 -31.5000 57.5000 3 40 990 3.00000 3.00000 -32.4000 56.8000 TC 45 22 162
1997042S13096 1997 12 SI MM KARLETTE 1997-02-24 21:00:00 TS -33.1728 57.4498 main 1329 1329 P____P______P_ SH251997 -33.3801 57.1144 42 0 -32.7583 58.1206 3 -33.3801 57.1144 TC 42 22 165
1997042S13096 1997 12 SI MM KARLETTE 1997-02-25 00:00:00 MX -34.2182 57.7273 reunion main 1443 1443 O____O______O_ jtwc_sh SH251997 -34.3000 57.4000 40 0 -34.0000 58.6000 5 9.90000 -34.3000 57.4000 TC 40 19 171
1997042S13096 1997 12 SI MM KARLETTE 1997-02-25 03:00:00 MX -35.0803 57.8048 main 1521 1521 P____P______P_ SH251997 -35.0949 57.5955 40 0 -35.0221 58.6422 5 -35.0949 57.5955 TC 40 16 179
1997042S13096 1997 12 SI MM KARLETTE 1997-02-25 06:00:00 MX -35.8111 57.7778 reunion main 1576 1576 O____O______O_ jtwc_sh SH251997 -35.8000 57.7000 40 0 -35.9000 58.4000 5 9.90000 -35.8000 57.7000 TC 40 14 181
1997042S13096 1997 12 SI MM KARLETTE 1997-02-25 09:00:00 TS -36.4722 57.7817 main 1634 1583 P___________P_ SH251997 -36.4722 57.7817 40 0 5 -36.4722 57.7817 TC 40 13 182
1997042S13096 1997 12 SI MM KARLETTE 1997-02-25 12:00:00 TS -37.1000 57.7000 main 1583 1540 O___________O_ jtwc_sh SH251997 -37.1000 57.7000 40 0 -37.1000 57.7000 TC 40 13 196
1997042S13096 1997 12 SI MM KARLETTE 1997-02-25 15:00:00 TS -37.7304 57.3391 main 1545 1509 P___________P_ SH251997 -37.7304 57.3391 37 0 -37.7304 57.3391 TC 37 14 208
1997042S13096 1997 12 SI MM KARLETTE 1997-02-25 18:00:00 TS -38.3000 56.9000 main 1509 1475 O___________O_ jtwc_sh SH251997 -38.3000 56.9000 35 0 -38.3000 56.9000 TC 35 12 207
1997042S13096 1997 12 SI MM KARLETTE 1997-02-25 21:00:00 TS -38.7871 56.6488 main 1480 1456 P___________P_ SH251997 -38.7871 56.6488 32 -1 -38.7871 56.6488 TC 32 10 203
1997042S13096 1997 12 SI MM KARLETTE 1997-02-26 00:00:00 TS -39.2000 56.4000 main 1456 1441 O___________O_ jtwc_sh SH251997 -39.2000 56.4000 30 -1 -39.2000 56.4000 TC 30 9 211
1997042S13096 1997 12 SI MM KARLETTE 1997-02-26 03:00:00 TS -39.5631 56.0388 main 1443 1435 P___________P_ SH251997 -39.5631 56.0388 30 -1 -39.5631 56.0388 TC 30 9 221
1997042S13096 1997 12 SI MM KARLETTE 1997-02-26 06:00:00 TS -39.9000 55.6000 main 1441 O___________O_ jtwc_sh SH251997 -39.9000 55.6000 30 -1 -39.9000 55.6000 TC 30 10 225

IBTrACS Databaseについて

本データベースは、米国NOAAが公開する1842年以降の世界の熱帯低気圧のベストトラックデータアーカイブInternational Best Track Archive for Climate Stewardship (IBTrACS)を、ウェブで閲覧しやすい形式に変換したものです。

最終更新日:2021-10-19